Time;durP1;ratioP1;P1;durP2;ratioP2;P2;SDS_P1;SDS_P2;PMS_P1;PMS_P2;Temp;Humidity;BMP_temperature;BMP_pressure;BME280_temperature;BME280_humidity;BME280_pressure;Samples;Min_cycle;Max_cycle;Signal;HPM_P1;HPM_P2
2021/12/29 00:00:43;;;;;;;3.72;1.42;;;4.70;99.90;;;;;;5092991;28;20595;-82
2021/12/29 00:03:10;;;;;;;1.08;0.90;;;4.70;99.90;;;;;;5093005;28;20132;-82
2021/12/29 00:05:38;;;;;;;4.28;1.10;;;4.60;99.90;;;;;;5093064;28;20453;-82
2021/12/29 00:08:05;;;;;;;1.55;0.80;;;4.60;99.90;;;;;;5074947;28;20087;-82
2021/12/29 00:10:32;;;;;;;4.88;1.20;;;4.70;99.90;;;;;;5075076;28;20106;-82
2021/12/29 00:13:00;;;;;;;4.15;0.98;;;4.80;99.90;;;;;;5075129;28;20048;-82
2021/12/29 00:15:28;;;;;;;4.88;0.98;;;4.80;99.90;;;;;;5092637;28;20044;-83
2021/12/29 00:17:56;;;;;;;1.15;0.68;;;4.70;99.90;;;;;;5091865;28;20052;-82
2021/12/29 00:20:28;;;;;;;3.45;1.10;;;4.70;99.90;;;;;;5075004;28;20557;-82
2021/12/29 00:23:01;;;;;;;2.38;1.67;;;4.80;99.90;;;;;;5075039;28;20063;-82
2021/12/29 00:25:28;;;;;;;4.00;2.15;;;4.70;99.90;;;;;;5074916;28;20135;-82
2021/12/29 00:27:55;;;;;;;2.95;1.10;;;4.60;99.90;;;;;;5074899;28;20150;-83
2021/12/29 00:30:22;;;;;;;2.35;1.52;;;4.50;99.90;;;;;;5074712;28;20044;-82
2021/12/29 00:32:50;;;;;;;4.72;2.42;;;4.40;99.90;;;;;;5074903;28;20040;-82
2021/12/29 00:35:17;;;;;;;2.45;1.60;;;4.20;99.90;;;;;;5074743;28;20135;-82
2021/12/29 00:37:44;;;;;;;3.47;1.00;;;4.00;99.90;;;;;;5074484;28;20120;-82
2021/12/29 00:40:12;;;;;;;0.85;0.80;;;3.80;99.90;;;;;;5092523;28;20048;-82
2021/12/29 00:42:40;;;;;;;3.15;0.80;;;3.70;99.90;;;;;;5092580;28;20054;-82
2021/12/29 00:45:07;;;;;;;0.98;0.90;;;3.60;99.90;;;;;;5074468;28;20496;-82
2021/12/29 00:47:36;;;;;;;3.22;1.63;;;3.70;99.90;;;;;;5074889;28;20060;-82
2021/12/29 00:50:06;;;;;;;2.15;0.77;;;3.70;99.90;;;;;;5075819;28;20075;-83
2021/12/29 00:52:33;;;;;;;4.45;1.23;;;3.80;99.90;;;;;;5096446;28;20143;-82
2021/12/29 00:55:00;;;;;;;2.03;1.27;;;3.90;99.90;;;;;;5078540;28;20162;-81
2021/12/29 00:57:28;;;;;;;2.40;1.30;;;4.00;99.90;;;;;;5078515;28;20290;-82
2021/12/29 00:59:55;;;;;;;4.63;1.52;;;4.10;99.90;;;;;;5078326;28;20522;-82
2021/12/29 01:02:22;;;;;;;2.85;1.10;;;4.10;99.90;;;;;;5078297;28;20147;-82
2021/12/29 01:04:49;;;;;;;2.83;1.20;;;4.10;99.90;;;;;;5096341;28;20048;-82
2021/12/29 01:07:16;;;;;;;1.95;1.02;;;4.20;99.90;;;;;;5096267;28;20059;-82
2021/12/29 01:09:44;;;;;;;2.97;0.98;;;4.20;99.90;;;;;;5096298;28;20048;-82
2021/12/29 01:12:12;;;;;;;2.55;1.00;;;4.20;99.90;;;;;;5078193;28;20598;-82
2021/12/29 01:14:43;;;;;;;1.60;0.90;;;4.30;99.90;;;;;;5096135;28;20127;-81
2021/12/29 01:17:10;;;;;;;2.40;1.10;;;4.30;99.90;;;;;;5095845;28;20588;-81
2021/12/29 01:19:37;;;;;;;3.25;0.95;;;4.20;99.90;;;;;;5096041;28;20128;-82
2021/12/29 01:22:04;;;;;;;4.65;1.10;;;4.20;99.90;;;;;;5095874;28;20140;-82
2021/12/29 01:24:31;;;;;;;3.22;1.00;;;4.20;99.90;;;;;;5077976;28;20048;-82
2021/12/29 01:26:58;;;;;;;1.58;0.90;;;4.20;99.90;;;;;;5077856;28;20556;-82
2021/12/29 01:29:29;;;;;;;0.75;0.70;;;4.30;99.90;;;;;;5077650;28;20165;-82
2021/12/29 01:32:00;;;;;;;2.15;0.70;;;4.30;99.90;;;;;;5077722;28;20527;-82
2021/12/29 01:34:27;;;;;;;6.22;1.27;;;4.30;99.90;;;;;;5077621;28;20139;-81
2021/12/29 01:36:54;;;;;;;2.65;0.90;;;4.30;99.90;;;;;;5077531;28;20392;-82
2021/12/29 01:39:22;;;;;;;2.00;1.10;;;4.30;99.90;;;;;;5077578;28;20047;-82
2021/12/29 01:41:52;;;;;;;5.03;1.08;;;4.30;99.90;;;;;;5077684;28;20044;-81
2021/12/29 01:44:23;;;;;;;4.38;1.13;;;4.30;99.90;;;;;;5077510;28;20127;-82
2021/12/29 01:46:51;;;;;;;3.70;1.20;;;4.40;99.90;;;;;;5077330;28;20083;-82
2021/12/29 01:49:18;;;;;;;2.40;1.23;;;4.30;99.90;;;;;;5077336;28;20568;-82
2021/12/29 01:51:51;;;;;;;1.92;1.25;;;4.30;99.90;;;;;;5095456;28;20492;-82
2021/12/29 01:54:25;;;;;;;2.70;1.10;;;4.40;99.90;;;;;;5077350;28;20131;-83
2021/12/29 01:56:56;;;;;;;4.05;1.10;;;4.40;99.90;;;;;;5077476;28;20147;-82
2021/12/29 01:59:25;;;;;;;1.67;0.98;;;4.50;99.90;;;;;;5077291;28;20048;-82
2021/12/29 02:01:52;;;;;;;3.83;1.08;;;4.60;99.90;;;;;;5077085;28;20127;-83
2021/12/29 02:04:19;;;;;;;1.27;0.90;;;4.50;99.90;;;;;;5094936;28;20051;-81
2021/12/29 02:06:47;;;;;;;0.75;0.75;;;4.50;99.90;;;;;;5077392;28;20062;-82
2021/12/29 02:09:14;;;;;;;0.77;0.77;;;4.50;99.90;;;;;;5076900;28;20046;-83
2021/12/29 02:11:42;;;;;;;2.53;1.05;;;4.50;99.90;;;;;;5095213;28;20040;-82
2021/12/29 02:14:09;;;;;;;2.08;1.00;;;4.50;99.90;;;;;;5076818;28;20044;-82
2021/12/29 02:16:37;;;;;;;1.00;0.93;;;4.50;99.90;;;;;;5076929;28;20410;-82
2021/12/29 02:19:08;;;;;;;2.97;0.95;;;4.50;99.90;;;;;;5076986;28;20135;-82
2021/12/29 02:21:35;;;;;;;4.43;1.20;;;4.50;99.90;;;;;;5076851;28;20058;-82
2021/12/29 02:24:17;;;;;;;2.47;0.80;;;4.50;99.90;;;;;;5094790;28;20051;-82
2021/12/29 02:26:46;;;;;;;1.92;0.80;;;4.50;99.90;;;;;;5094779;28;20135;-82
2021/12/29 02:29:16;;;;;;;1.27;0.80;;;4.60;99.90;;;;;;5094656;28;20109;-82
2021/12/29 02:31:45;;;;;;;3.28;1.08;;;4.60;99.90;;;;;;5077010;28;20063;-82
2021/12/29 02:34:15;;;;;;;1.63;0.90;;;4.60;99.90;;;;;;5076642;28;20497;-82
2021/12/29 02:36:44;;;;;;;2.92;0.90;;;4.50;99.90;;;;;;5094584;28;20048;-82
2021/12/29 02:39:14;;;;;;;3.58;1.30;;;4.50;99.90;;;;;;5076291;28;20157;-82
2021/12/29 02:41:50;;;;;;;4.53;1.27;;;4.50;99.90;;;;;;5076532;28;20113;-82
2021/12/29 02:44:24;;;;;;;2.67;1.00;;;4.50;99.90;;;;;;5076451;28;20055;-82
2021/12/29 02:46:53;;;;;;;3.05;1.13;;;4.60;99.90;;;;;;5094374;28;20602;-82
2021/12/29 02:49:20;;;;;;;1.73;1.40;;;4.60;99.90;;;;;;5076129;28;20158;-82
2021/12/29 02:51:48;;;;;;;2.53;1.13;;;4.70;99.90;;;;;;5076458;28;20056;-82
2021/12/29 02:54:16;;;;;;;5.03;0.98;;;4.70;99.90;;;;;;5076200;28;20044;-83
2021/12/29 02:56:48;;;;;;;1.00;1.00;;;4.70;99.90;;;;;;5076182;28;20047;-82
2021/12/29 02:59:16;;;;;;;3.72;1.17;;;4.60;99.90;;;;;;5094042;28;20047;-82
2021/12/29 03:01:43;;;;;;;2.33;1.20;;;4.50;99.90;;;;;;5076154;28;20089;-82
2021/12/29 03:04:11;;;;;;;3.35;1.52;;;4.40;99.90;;;;;;5093836;28;20098;-82
2021/12/29 03:06:39;;;;;;;1.75;1.05;;;4.30;99.90;;;;;;5076050;28;20055;-82
2021/12/29 03:09:09;;;;;;;3.63;1.10;;;4.30;99.90;;;;;;5076100;28;20048;-82
2021/12/29 03:11:36;;;;;;;2.50;1.25;;;4.40;99.90;;;;;;5093713;28;20048;-82
2021/12/29 03:14:04;;;;;;;2.28;1.30;;;4.40;99.90;;;;;;5092933;28;20043;-82
2021/12/29 03:16:33;;;;;;;1.92;1.30;;;4.40;99.90;;;;;;5075676;28;20064;-82
2021/12/29 03:19:02;;;;;;;4.18;1.55;;;4.40;99.90;;;;;;5093913;28;20047;-82
2021/12/29 03:21:30;;;;;;;2.95;1.27;;;4.40;99.90;;;;;;5093610;28;20488;-82
2021/12/29 03:23:57;;;;;;;1.55;1.13;;;4.30;99.90;;;;;;5093712;28;20062;-82
2021/12/29 03:26:23;;;;;;;1.67;1.20;;;4.30;99.90;;;;;;5075667;28;20076;-83
2021/12/29 03:28:51;;;;;;;3.75;1.50;;;4.30;99.90;;;;;;5093542;28;20090;-82
2021/12/29 03:31:21;;;;;;;1.15;0.90;;;4.20;99.90;;;;;;5093398;28;20044;-82
2021/12/29 03:33:49;;;;;;;1.65;1.20;;;4.20;99.90;;;;;;5075598;28;20047;-82
2021/12/29 03:36:17;;;;;;;2.13;0.88;;;4.20;99.90;;;;;;5093399;28;20130;-82
2021/12/29 03:38:45;;;;;;;1.60;0.95;;;4.20;99.90;;;;;;5075374;28;20055;-83
2021/12/29 03:41:16;;;;;;;2.78;0.82;;;4.20;99.90;;;;;;5075389;28;20048;-81
2021/12/29 03:43:45;;;;;;;7.53;1.33;;;4.30;99.90;;;;;;5075426;28;20484;-82
2021/12/29 03:46:13;;;;;;;3.28;1.10;;;4.30;99.90;;;;;;5075306;28;20125;-82
2021/12/29 03:48:42;;;;;;;2.55;1.05;;;4.40;99.90;;;;;;5075335;28;20094;-82
2021/12/29 03:51:10;;;;;;;2.63;1.25;;;4.40;99.90;;;;;;5075289;28;20052;-82
2021/12/29 03:53:37;;;;;;;4.78;1.30;;;4.50;99.90;;;;;;5093278;28;20555;-82
2021/12/29 03:56:06;;;;;;;1.67;1.10;;;4.60;99.90;;;;;;5075354;28;20416;-81
2021/12/29 03:58:32;;;;;;;1.35;1.05;;;4.60;99.90;;;;;;5093190;28;20511;-81
2021/12/29 04:01:06;;;;;;;1.77;1.00;;;4.60;99.90;;;;;;5075392;28;20122;-82
2021/12/29 04:03:33;;;;;;;1.30;0.88;;;4.60;99.90;;;;;;5093534;28;20052;-81
2021/12/29 04:06:00;;;;;;;1.63;1.00;;;4.70;99.90;;;;;;5075291;28;20052;-81
2021/12/29 04:08:27;;;;;;;1.38;0.70;;;4.70;99.90;;;;;;5093008;28;20435;-81
2021/12/29 04:10:54;;;;;;;4.05;0.98;;;4.70;99.90;;;;;;5075539;28;20051;-82
2021/12/29 04:13:22;;;;;;;4.03;1.13;;;4.80;99.90;;;;;;5074993;28;20050;-81
2021/12/29 04:15:48;;;;;;;2.90;1.10;;;4.80;99.90;;;;;;5075102;28;20137;-81
2021/12/29 04:18:25;;;;;;;2.55;1.00;;;4.80;99.90;;;;;;5075043;28;20083;-82
2021/12/29 04:20:55;;;;;;;1.23;0.90;;;4.70;99.90;;;;;;5075181;28;20082;-82
2021/12/29 04:23:28;;;;;;;2.50;0.70;;;4.70;99.90;;;;;;5093001;28;20485;-82
2021/12/29 04:25:56;;;;;;;2.80;0.80;;;4.60;99.90;;;;;;5093265;28;20089;-81
2021/12/29 04:28:25;;;;;;;3.22;1.10;;;4.60;99.90;;;;;;5092909;28;20163;-82
2021/12/29 04:30:59;;;;;;;1.52;0.85;;;4.70;99.90;;;;;;5075004;28;20135;-81
2021/12/29 04:33:28;;;;;;;3.05;1.30;;;4.70;99.90;;;;;;5092789;28;20101;-81
2021/12/29 04:35:55;;;;;;;2.50;1.00;;;4.60;99.90;;;;;;5074929;28;20055;-81
2021/12/29 04:38:24;;;;;;;2.55;1.08;;;4.60;99.90;;;;;;5074641;28;20082;-81
2021/12/29 04:40:54;;;;;;;4.00;1.52;;;4.60;99.90;;;;;;5092864;28;20048;-81
2021/12/29 04:43:21;;;;;;;2.83;1.05;;;4.60;99.90;;;;;;5074799;28;20066;-82
2021/12/29 04:45:50;;;;;;;1.42;1.13;;;4.70;99.90;;;;;;5074915;28;20044;-81
2021/12/29 04:48:17;;;;;;;2.13;1.38;;;4.60;99.90;;;;;;5074741;28;20146;-81
2021/12/29 04:50:52;;;;;;;4.60;1.45;;;4.70;99.90;;;;;;5075273;28;20560;-81
2021/12/29 04:53:22;;;;;;;5.00;1.65;;;4.70;99.90;;;;;;5074795;28;20133;-81
2021/12/29 04:55:50;;;;;;;2.97;1.40;;;4.70;99.90;;;;;;5074689;28;20475;-81
2021/12/29 04:58:19;;;;;;;1.73;1.10;;;4.70;99.90;;;;;;5092927;28;20626;-82
2021/12/29 05:00:47;;;;;;;1.48;1.30;;;4.60;99.90;;;;;;5092986;28;20044;-81
2021/12/29 05:03:15;;;;;;;3.97;1.38;;;4.70;99.90;;;;;;5092906;28;20048;-82
2021/12/29 05:05:54;;;;;;;1.90;1.20;;;4.70;99.90;;;;;;5075226;28;20101;-82
2021/12/29 05:08:25;;;;;;;1.75;1.23;;;4.70;99.90;;;;;;5091889;28;20492;-82
2021/12/29 05:11:03;;;;;;;3.75;1.40;;;4.60;99.90;;;;;;5075028;28;20127;-82
2021/12/29 05:13:35;;;;;;;2.83;1.55;;;4.60;99.90;;;;;;5093117;28;20048;-82
2021/12/29 05:16:02;;;;;;;4.82;2.03;;;4.60;99.90;;;;;;5074855;28;20127;-82
2021/12/29 05:18:35;;;;;;;5.63;1.75;;;4.60;99.90;;;;;;5074837;28;20464;-82
2021/12/29 05:21:04;;;;;;;6.18;1.80;;;4.60;99.90;;;;;;5092710;28;20048;-81
2021/12/29 05:23:31;;;;;;;3.28;1.40;;;4.70;99.90;;;;;;5093044;28;20135;-81
2021/12/29 05:25:57;;;;;;;6.45;1.88;;;4.60;99.90;;;;;;5074639;28;20130;-82
2021/12/29 05:28:24;;;;;;;1.77;1.58;;;4.60;99.90;;;;;;5074614;28;20066;-82
2021/12/29 05:30:52;;;;;;;5.90;2.10;;;4.60;99.90;;;;;;5092552;28;20131;-82
2021/12/29 05:33:19;;;;;;;4.63;1.90;;;4.60;99.90;;;;;;5074193;28;20512;-82
2021/12/29 05:35:46;;;;;;;4.10;2.03;;;4.50;99.90;;;;;;5074815;28;20044;-82
2021/12/29 05:38:12;;;;;;;3.35;1.83;;;4.70;99.90;;;;;;5077497;28;20123;-81
2021/12/29 05:40:39;;;;;;;5.57;1.83;;;4.60;99.90;;;;;;5077977;28;20044;-82
2021/12/29 05:43:06;;;;;;;3.50;2.38;;;4.70;99.90;;;;;;5077639;28;20040;-82
2021/12/29 05:45:32;;;;;;;3.38;1.75;;;4.70;99.90;;;;;;5095794;28;20123;-82
2021/12/29 05:48:01;;;;;;;2.22;2.13;;;4.60;99.90;;;;;;5077882;28;20446;-81
2021/12/29 05:50:30;;;;;;;7.55;2.35;;;4.70;99.90;;;;;;5077744;28;20525;-81
2021/12/29 05:52:58;;;;;;;5.88;2.47;;;4.70;99.90;;;;;;5095660;28;20126;-81
2021/12/29 05:55:26;;;;;;;6.32;2.38;;;4.70;99.90;;;;;;5077514;28;20138;-82
2021/12/29 05:57:53;;;;;;;8.20;2.78;;;4.60;99.90;;;;;;5095556;28;20076;-81
2021/12/29 06:00:22;;;;;;;2.50;1.92;;;4.60;99.90;;;;;;5077158;28;20127;-81
2021/12/29 06:02:49;;;;;;;4.45;1.63;;;4.70;99.90;;;;;;5077274;28;20083;-82
2021/12/29 06:05:16;;;;;;;4.38;2.33;;;4.80;99.90;;;;;;5076925;28;20415;-81
2021/12/29 06:07:43;;;;;;;3.63;2.25;;;4.90;99.90;;;;;;5077118;28;20516;-81
2021/12/29 06:10:10;;;;;;;6.68;2.80;;;4.90;99.90;;;;;;5077178;28;20420;-81
2021/12/29 06:12:38;;;;;;;4.32;1.73;;;4.90;99.90;;;;;;5095057;28;20056;-82
2021/12/29 06:15:07;;;;;;;4.57;2.63;;;4.90;99.90;;;;;;5094820;28;20151;-82
2021/12/29 06:17:34;;;;;;;2.28;1.65;;;4.90;99.90;;;;;;5095026;28;20071;-81
2021/12/29 06:20:07;;;;;;;4.03;1.58;;;5.00;99.90;;;;;;5094889;28;20163;-81
2021/12/29 06:22:34;;;;;;;8.10;2.42;;;5.00;99.90;;;;;;5077078;28;20083;-82
2021/12/29 06:25:01;;;;;;;3.60;1.92;;;4.90;99.90;;;;;;5077022;28;20052;-82
2021/12/29 06:27:28;;;;;;;3.08;1.90;;;5.00;99.90;;;;;;5076620;28;20131;-81
2021/12/29 06:29:54;;;;;;;4.00;1.77;;;5.00;99.90;;;;;;5094675;28;20147;-82
2021/12/29 06:32:21;;;;;;;6.10;1.98;;;5.00;99.90;;;;;;5076569;28;20051;-82
2021/12/29 06:34:48;;;;;;;3.88;2.53;;;5.00;99.90;;;;;;5094748;28;20087;-82
2021/12/29 06:37:15;;;;;;;4.47;2.10;;;5.10;99.90;;;;;;5094003;28;20044;-82
2021/12/29 06:39:43;;;;;;;3.50;2.83;;;5.10;99.90;;;;;;5076718;28;20132;-82
2021/12/29 06:42:11;;;;;;;3.20;2.25;;;5.10;99.90;;;;;;5076597;28;20072;-81
2021/12/29 06:44:39;;;;;;;2.63;2.42;;;5.10;99.90;;;;;;5076430;28;20139;-81
2021/12/29 06:47:06;;;;;;;2.67;2.35;;;5.00;99.90;;;;;;5093686;28;20591;-82
2021/12/29 06:49:33;;;;;;;6.70;3.03;;;5.00;99.90;;;;;;5076342;28;20479;-82
2021/12/29 06:52:01;;;;;;;2.25;2.00;;;5.00;99.90;;;;;;5076327;28;20056;-82
2021/12/29 06:54:29;;;;;;;4.68;2.30;;;5.00;99.90;;;;;;5094475;28;20496;-83
2021/12/29 06:56:56;;;;;;;3.63;2.28;;;5.00;99.90;;;;;;5076202;28;20044;-82
2021/12/29 06:59:23;;;;;;;4.30;2.03;;;5.00;99.90;;;;;;5076323;28;20062;-82
2021/12/29 07:01:50;;;;;;;4.57;3.80;;;5.10;99.90;;;;;;5076279;28;20044;-82
2021/12/29 07:04:17;;;;;;;7.38;4.10;;;5.00;99.90;;;;;;5076271;28;20055;-82
2021/12/29 07:06:44;;;;;;;3.22;2.50;;;5.10;99.90;;;;;;5076160;28;20136;-82
2021/12/29 07:09:11;;;;;;;5.82;3.20;;;5.20;99.90;;;;;;5075968;28;20087;-82
2021/12/29 07:11:38;;;;;;;2.50;2.00;;;5.20;99.90;;;;;;5075913;28;20090;-82
2021/12/29 07:14:07;;;;;;;3.65;2.10;;;5.30;99.90;;;;;;5093537;28;20084;-82
2021/12/29 07:16:34;;;;;;;2.17;2.00;;;5.40;99.90;;;;;;5076235;28;20044;-82
2021/12/29 07:19:01;;;;;;;2.58;2.38;;;5.40;99.90;;;;;;5075845;28;20050;-82
2021/12/29 07:21:27;;;;;;;3.60;2.67;;;5.50;99.90;;;;;;5075670;28;20048;-83
2021/12/29 07:23:54;;;;;;;2.38;2.15;;;5.50;99.90;;;;;;5075943;28;20415;-83
2021/12/29 07:26:22;;;;;;;4.68;2.88;;;5.50;99.90;;;;;;5075601;28;20128;-83
2021/12/29 07:28:50;;;;;;;4.35;2.45;;;5.60;99.90;;;;;;5075893;28;20052;-83
2021/12/29 07:31:18;;;;;;;2.40;2.20;;;5.60;99.90;;;;;;5075815;28;20052;-83
2021/12/29 07:33:46;;;;;;;1.98;1.67;;;5.60;99.90;;;;;;5075720;28;20048;-83
2021/12/29 07:36:13;;;;;;;2.42;1.70;;;5.60;99.90;;;;;;5093431;28;20048;-83
2021/12/29 07:38:40;;;;;;;2.42;1.98;;;5.50;99.90;;;;;;5075505;28;20571;-82
2021/12/29 07:41:09;;;;;;;2.55;1.42;;;5.50;99.90;;;;;;5075689;28;20127;-83
2021/12/29 07:43:38;;;;;;;2.20;1.40;;;5.50;99.90;;;;;;5075659;28;20052;-82
2021/12/29 07:46:05;;;;;;;5.38;1.48;;;5.60;99.90;;;;;;5075252;28;20134;-83
2021/12/29 07:48:33;;;;;;;2.78;1.85;;;5.60;99.90;;;;;;5075487;28;20097;-83
2021/12/29 07:51:02;;;;;;;3.38;1.80;;;5.60;99.90;;;;;;5075339;28;20067;-83
2021/12/29 07:53:29;;;;;;;4.68;2.00;;;5.60;99.90;;;;;;5075320;28;20066;-82
2021/12/29 07:55:56;;;;;;;4.65;2.20;;;5.60;99.90;;;;;;5075409;28;20458;-83
2021/12/29 07:58:23;;;;;;;3.35;2.38;;;5.60;99.90;;;;;;5092800;28;20415;-83
2021/12/29 08:00:50;;;;;;;2.35;2.15;;;5.60;99.90;;;;;;5075294;28;20230;-83
2021/12/29 08:03:17;;;;;;;4.03;2.63;;;5.60;99.90;;;;;;5074813;28;20567;-83
2021/12/29 08:05:45;;;;;;;5.78;3.53;;;5.70;99.90;;;;;;5075124;28;20055;-83
2021/12/29 08:08:12;;;;;;;5.13;3.80;;;5.70;99.90;;;;;;5076379;28;20048;-84
2021/12/29 08:10:39;;;;;;;9.65;5.97;;;5.80;99.90;;;;;;5075775;28;20055;-83
2021/12/29 08:13:07;;;;;;;10.35;6.43;;;5.90;99.90;;;;;;5093728;28;20048;-83
2021/12/29 08:15:35;;;;;;;8.57;5.30;;;5.90;99.90;;;;;;5093653;28;20126;-83
2021/12/29 08:18:04;;;;;;;4.82;2.95;;;6.00;99.90;;;;;;5075703;28;20127;-83
2021/12/29 08:20:32;;;;;;;4.05;2.80;;;6.10;99.90;;;;;;5075916;28;20040;-83
2021/12/29 08:23:00;;;;;;;2.42;2.28;;;6.20;99.90;;;;;;5075825;28;20560;-83
2021/12/29 08:25:26;;;;;;;14.30;2.45;;;6.20;99.90;;;;;;5075518;28;20058;-84
2021/12/29 08:27:53;;;;;;;2.65;2.50;;;6.20;99.90;;;;;;5075552;28;20044;-83
2021/12/29 08:30:20;;;;;;;6.10;4.47;;;6.20;99.90;;;;;;5075791;28;20491;-83
2021/12/29 08:32:47;;;;;;;5.05;3.92;;;6.20;99.90;;;;;;5075770;28;20048;-84
2021/12/29 08:35:14;;;;;;;7.40;4.32;;;6.30;99.90;;;;;;5075721;28;20136;-84
2021/12/29 08:37:41;;;;;;;5.65;3.25;;;6.30;99.90;;;;;;5092913;28;20076;-83
2021/12/29 08:40:10;;;;;;;3.33;3.00;;;6.30;99.90;;;;;;5075098;28;20599;-83
2021/12/29 08:42:38;;;;;;;5.57;3.75;;;6.40;99.90;;;;;;5075326;28;20048;-83
2021/12/29 08:45:07;;;;;;;4.03;3.47;;;6.40;99.90;;;;;;5075321;28;20135;-83
2021/12/29 08:47:35;;;;;;;5.65;4.72;;;6.40;99.90;;;;;;5075368;28;20052;-84
2021/12/29 08:50:05;;;;;;;7.30;5.20;;;6.50;99.90;;;;;;5075048;28;20139;-83
2021/12/29 08:52:33;;;;;;;5.63;5.10;;;6.50;99.90;;;;;;5074785;28;20139;-83
2021/12/29 08:55:00;;;;;;;7.47;5.53;;;6.50;99.90;;;;;;5074943;28;20072;-83
2021/12/29 08:57:28;;;;;;;5.05;3.47;;;6.60;99.90;;;;;;5075068;28;20179;-83
2021/12/29 08:59:55;;;;;;;3.20;2.92;;;6.70;99.90;;;;;;5092835;28;20497;-84
2021/12/29 09:02:21;;;;;;;6.45;4.68;;;6.70;99.90;;;;;;5075491;28;20488;-84
2021/12/29 09:04:49;;;;;;;9.45;5.45;;;6.80;99.90;;;;;;5074913;28;20052;-84
2021/12/29 09:07:15;;;;;;;8.60;5.13;;;6.80;99.90;;;;;;5074810;28;20095;-83
2021/12/29 09:09:42;;;;;;;11.70;5.93;;;6.90;99.90;;;;;;5075215;28;20054;-83
2021/12/29 09:12:09;;;;;;;8.93;4.80;;;6.90;99.90;;;;;;5095719;28;20151;-83
2021/12/29 09:14:36;;;;;;;7.82;4.93;;;7.00;99.90;;;;;;5078493;28;20083;-83
2021/12/29 09:17:03;;;;;;;5.70;4.43;;;7.10;99.90;;;;;;5078883;28;20058;-84
2021/12/29 09:19:33;;;;;;;6.60;4.60;;;7.30;99.90;;;;;;5079006;28;20044;-84
2021/12/29 09:22:00;;;;;;;11.80;6.82;;;7.40;99.90;;;;;;5078749;28;20044;-83
2021/12/29 09:24:27;;;;;;;7.47;5.38;;;7.60;99.90;;;;;;5078780;28;20083;-83
2021/12/29 09:26:54;;;;;;;7.28;5.07;;;7.70;99.90;;;;;;5078661;28;20131;-83
2021/12/29 09:29:21;;;;;;;8.93;5.88;;;7.90;99.90;;;;;;5078309;28;20083;-83
2021/12/29 09:31:49;;;;;;;9.45;6.43;;;7.90;99.90;;;;;;5075513;28;20056;-83
2021/12/29 09:34:16;;;;;;;11.45;8.52;;;8.00;99.90;;;;;;5075272;28;20043;-83
2021/12/29 09:36:43;;;;;;;15.57;8.88;;;8.00;99.90;;;;;;5096197;28;20496;-83
2021/12/29 09:39:10;;;;;;;17.73;9.27;;;8.00;99.90;;;;;;5077948;28;20127;-83
2021/12/29 09:41:37;;;;;;;17.70;9.25;;;8.20;99.90;;;;;;5077906;28;20504;-83
2021/12/29 09:44:04;;;;;;;11.98;8.00;;;8.40;99.90;;;;;;5075139;28;20512;-84
2021/12/29 09:46:31;;;;;;;11.38;5.03;;;8.40;99.90;;;;;;5085282;28;20124;-83
2021/12/29 09:49:00;;;;;;;7.15;5.88;;;8.50;99.90;;;;;;5095995;28;20128;-83
2021/12/29 09:51:28;;;;;;;9.20;6.60;;;8.40;99.90;;;;;;5088348;28;20120;-83
2021/12/29 09:53:54;;;;;;;7.90;6.93;;;8.50;99.90;;;;;;5089963;28;20401;-84
2021/12/29 09:56:21;;;;;;;3.08;2.70;;;8.50;99.90;;;;;;5077585;28;20131;-83
2021/12/29 09:58:49;;;;;;;4.03;2.90;;;8.60;99.90;;;;;;5077887;28;20123;-83
2021/12/29 10:01:16;;;;;;;1.42;0.80;;;8.60;99.90;;;;;;5077684;28;20473;-83
2021/12/29 10:03:44;;;;;;;1.35;1.10;;;8.60;99.90;;;;;;5094461;28;20101;-83
2021/12/29 10:06:12;;;;;;;2.22;1.40;;;8.70;99.90;;;;;;5095256;28;20087;-83
2021/12/29 10:08:47;;;;;;;2.45;1.73;;;8.90;99.90;;;;;;5077578;28;20127;-83
2021/12/29 10:11:27;;;;;;;4.90;1.58;;;8.90;99.90;;;;;;5095146;28;20470;-83
2021/12/29 10:13:54;;;;;;;2.05;1.20;;;9.00;99.90;;;;;;5077725;28;20048;-84
2021/12/29 10:16:24;;;;;;;1.67;0.80;;;9.00;99.90;;;;;;5077160;28;20052;-83
2021/12/29 10:19:03;;;;;;;1.80;1.13;;;9.10;99.90;;;;;;5095352;28;20491;-84
2021/12/29 10:21:31;;;;;;;0.93;0.90;;;9.10;99.90;;;;;;5077163;28;20040;-83
2021/12/29 10:24:01;;;;;;;1.35;1.25;;;9.20;99.90;;;;;;5077296;28;20458;-83
2021/12/29 10:26:39;;;;;;;5.50;3.65;;;9.30;99.90;;;;;;5095173;28;20047;-83
2021/12/29 10:29:13;;;;;;;6.85;4.95;;;9.40;99.90;;;;;;5077683;28;20044;-83
2021/12/29 10:31:44;;;;;;;5.88;3.50;;;9.50;99.90;;;;;;5077098;28;20044;-83
2021/12/29 10:34:20;;;;;;;2.58;1.95;;;9.50;99.90;;;;;;5077180;28;20048;-84
2021/12/29 10:36:55;;;;;;;2.20;1.50;;;9.40;99.90;;;;;;5077290;28;20126;-83
2021/12/29 10:39:28;;;;;;;1.60;1.50;;;9.50;99.90;;;;;;5076849;28;20048;-84
2021/12/29 10:42:01;;;;;;;9.80;6.97;;;9.50;99.90;;;;;;5076941;28;20097;-83
2021/12/29 10:44:45;;;;;;;2.10;2.00;;;9.50;99.90;;;;;;5093904;28;20054;-84
2021/12/29 10:47:13;;;;;;;;;;;9.40;99.90;;;;;;5067977;28;20040;-84
2021/12/29 10:49:54;;;;;;;1.90;1.60;;;9.40;99.90;;;;;;5057554;28;19946;-83
2021/12/29 10:52:31;;;;;;;3.10;2.90;;;9.40;99.90;;;;;;5072166;28;20086;-84
2021/12/29 10:54:59;;;;;;;2.00;1.90;;;9.40;99.90;;;;;;5053852;28;20123;-83
2021/12/29 10:57:26;;;;;;;2.10;2.00;;;9.40;99.90;;;;;;5074221;28;20127;-84
2021/12/29 11:00:02;;;;;;;0.40;0.40;;;9.50;99.90;;;;;;5073888;28;20508;-83
2021/12/29 11:02:35;;;;;;;1.10;0.52;;;9.50;99.90;;;;;;5056272;28;20041;-84
2021/12/29 11:05:07;;;;;;;0.60;0.60;;;9.30;99.90;;;;;;5056956;28;20084;-83
2021/12/29 11:07:35;;;;;;;1.45;0.30;;;9.30;99.90;;;;;;5057034;28;20511;-84
2021/12/29 11:10:11;;;;;;;0.20;0.20;;;9.40;99.90;;;;;;5062294;28;20496;-84
2021/12/29 11:12:50;;;;;;;0.55;0.55;;;9.40;99.90;;;;;;5056951;28;20048;-84
2021/12/29 11:15:29;;;;;;;0.52;0.52;;;9.50;99.90;;;;;;5056352;28;20591;-84
2021/12/29 11:18:03;;;;;;;1.23;1.15;;;9.50;99.90;;;;;;5056480;28;20123;-84
2021/12/29 11:20:31;;;;;;;1.23;1.23;;;9.60;99.90;;;;;;5056284;28;20076;-84
2021/12/29 11:23:08;;;;;;;1.90;1.80;;;9.70;99.90;;;;;;5055761;28;20043;-83
2021/12/29 11:25:36;;;;;;;1.40;1.30;;;9.70;99.90;;;;;;5055445;28;20076;-84
2021/12/29 11:28:04;;;;;;;1.77;1.60;;;9.70;99.90;;;;;;5052926;28;20044;-83
2021/12/29 11:30:31;;;;;;;2.28;1.70;;;9.80;99.90;;;;;;5056223;28;20451;-83
2021/12/29 11:33:11;;;;;;;2.17;1.60;;;9.90;99.90;;;;;;5073679;28;20497;-84
2021/12/29 11:35:43;;;;;;;1.80;1.70;;;9.80;99.90;;;;;;5073921;28;20470;-83
2021/12/29 11:38:11;;;;;;;10.88;8.05;;;9.90;99.90;;;;;;5055871;28;20415;-84
2021/12/29 11:40:40;;;;;;;29.55;17.35;;;10.00;99.90;;;;;;5073895;28;20131;-83
2021/12/29 11:43:08;;;;;;;12.70;8.95;;;10.20;99.90;;;;;;5055941;28;20048;-83
2021/12/29 11:45:37;;;;;;;7.13;5.97;;;10.40;99.90;;;;;;5074007;28;20135;-83
2021/12/29 11:48:05;;;;;;;4.05;2.90;;;10.70;99.90;;;;;;5056804;28;20044;-84
2021/12/29 11:50:34;;;;;;;8.55;7.32;;;10.60;99.90;;;;;;5055948;28;20139;-84
2021/12/29 11:53:18;;;;;;;3.10;2.13;;;10.40;99.90;;;;;;5055769;28;20083;-83
2021/12/29 11:55:48;;;;;;;0.20;0.20;;;10.40;99.90;;;;;;5055771;28;20050;-83
2021/12/29 11:58:16;;;;;;;1.77;0.45;;;10.30;99.90;;;;;;5073840;28;20048;-83
2021/12/29 12:00:47;;;;;;;0.40;0.20;;;10.10;99.90;;;;;;5055495;28;20052;-84
2021/12/29 12:03:17;;;;;;;0.98;0.30;;;10.10;99.90;;;;;;5055961;28;20094;-84
2021/12/29 12:05:48;;;;;;;0.55;0.20;;;10.00;99.90;;;;;;5073051;28;20124;-83
2021/12/29 12:08:24;;;;;;;0.10;0.10;;;9.90;99.90;;;;;;5055409;28;20083;-84
2021/12/29 12:10:51;;;;;;;1.40;0.40;;;9.80;99.90;;;;;;5055353;28;20051;-84
2021/12/29 12:13:30;;;;;;;0.10;0.10;;;9.70;99.90;;;;;;5055743;28;20049;-83
2021/12/29 12:16:08;;;;;;;0.10;0.10;;;9.70;99.90;;;;;;5073259;28;20135;-84
2021/12/29 12:19:00;;;;;;;1.45;0.38;;;9.60;99.90;;;;;;5072379;28;20131;-84
2021/12/29 12:21:39;;;;;;;0.10;0.10;;;9.50;99.90;;;;;;5072435;28;20128;-82
2021/12/29 12:24:19;;;;;;;0.20;0.20;;;9.40;99.90;;;;;;5055146;28;20132;-83
2021/12/29 12:26:59;;;;;;;0.20;0.20;;;9.40;99.90;;;;;;5055287;28;20122;-83
2021/12/29 12:29:36;;;;;;;0.30;0.20;;;9.40;99.90;;;;;;5055198;28;20059;-83
2021/12/29 12:32:12;;;;;;;0.20;0.20;;;9.50;99.90;;;;;;5055469;28;20139;-84
2021/12/29 12:34:51;;;;;;;0.20;0.20;;;9.50;99.90;;;;;;5072625;28;20092;-83
2021/12/29 12:37:29;;;;;;;0.35;0.30;;;9.60;99.90;;;;;;5072538;28;20274;-83
2021/12/29 12:40:11;;;;;;;0.30;0.30;;;9.60;99.90;;;;;;5072849;28;20507;-83
2021/12/29 12:42:39;;;;;;;1.27;0.30;;;9.70;99.90;;;;;;5055090;28;20044;-83
2021/12/29 12:45:19;;;;;;;1.25;0.20;;;9.80;99.90;;;;;;5056150;28;20048;-83
2021/12/29 12:47:46;;;;;;;0.30;0.30;;;9.90;99.90;;;;;;5077226;28;20052;-84
2021/12/29 12:50:26;;;;;;;0.30;0.30;;;9.90;99.90;;;;;;5075980;28;20131;-84
2021/12/29 12:52:55;;;;;;;0.45;0.13;;;9.90;99.90;;;;;;5057966;28;20151;-84
2021/12/29 12:55:24;;;;;;;0.40;0.30;;;9.80;99.90;;;;;;5055902;28;20055;-84
2021/12/29 12:57:52;;;;;;;1.33;0.30;;;9.70;99.90;;;;;;5077093;28;20045;-83
2021/12/29 13:00:22;;;;;;;0.75;0.30;;;9.60;99.90;;;;;;5058593;28;20113;-84
2021/12/29 13:02:56;;;;;;;1.40;0.90;;;9.60;99.90;;;;;;5076364;28;20048;-84
2021/12/29 13:05:25;;;;;;;0.25;0.25;;;9.60;99.90;;;;;;5058679;28;20068;-84